sensor_id;sensor_type;location;lat;lon;timestamp;P1;durP1;ratioP1;P2;durP2;ratioP2
75760;SDS011;64373;46.136;8.830;2023-06-22T00:01:54;7.05;;;5.38;;
75760;SDS011;64373;46.136;8.830;2023-06-22T00:04:20;7.97;;;5.47;;
75760;SDS011;64373;46.136;8.830;2023-06-22T00:06:46;7.60;;;5.05;;
75760;SDS011;64373;46.136;8.830;2023-06-22T00:09:11;5.28;;;4.28;;
75760;SDS011;64373;46.136;8.830;2023-06-22T00:11:37;5.70;;;4.53;;
75760;SDS011;64373;46.136;8.830;2023-06-22T00:14:03;6.05;;;3.83;;
75760;SDS011;64373;46.136;8.830;2023-06-22T00:16:29;6.22;;;4.80;;
75760;SDS011;64373;46.136;8.830;2023-06-22T00:18:56;7.18;;;5.10;;
75760;SDS011;64373;46.136;8.830;2023-06-22T00:21:23;6.90;;;4.63;;
75760;SDS011;64373;46.136;8.830;2023-06-22T00:23:48;7.55;;;4.82;;
75760;SDS011;64373;46.136;8.830;2023-06-22T00:26:14;4.97;;;3.85;;
75760;SDS011;64373;46.136;8.830;2023-06-22T00:28:40;5.03;;;4.20;;
75760;SDS011;64373;46.136;8.830;2023-06-22T00:31:05;5.07;;;3.80;;
75760;SDS011;64373;46.136;8.830;2023-06-22T00:33:31;6.13;;;3.80;;
75760;SDS011;64373;46.136;8.830;2023-06-22T00:35:56;5.13;;;4.13;;
75760;SDS011;64373;46.136;8.830;2023-06-22T00:38:22;4.93;;;4.13;;
75760;SDS011;64373;46.136;8.830;2023-06-22T00:40:47;5.32;;;4.28;;
75760;SDS011;64373;46.136;8.830;2023-06-22T00:43:13;6.10;;;4.18;;
75760;SDS011;64373;46.136;8.830;2023-06-22T00:45:38;5.03;;;3.65;;
75760;SDS011;64373;46.136;8.830;2023-06-22T00:48:04;5.65;;;4.78;;
75760;SDS011;64373;46.136;8.830;2023-06-22T00:50:31;8.27;;;4.53;;
75760;SDS011;64373;46.136;8.830;2023-06-22T00:53:02;5.30;;;4.00;;
75760;SDS011;64373;46.136;8.830;2023-06-22T00:55:36;4.88;;;3.90;;
75760;SDS011;64373;46.136;8.830;2023-06-22T00:58:04;5.22;;;3.50;;
75760;SDS011;64373;46.136;8.830;2023-06-22T01:00:33;4.72;;;3.67;;
75760;SDS011;64373;46.136;8.830;2023-06-22T01:02:58;3.75;;;3.30;;
75760;SDS011;64373;46.136;8.830;2023-06-22T01:05:24;4.55;;;3.30;;
75760;SDS011;64373;46.136;8.830;2023-06-22T01:15:40;3.97;;;2.85;;
75760;SDS011;64373;46.136;8.830;2023-06-22T01:18:11;4.32;;;3.58;;
75760;SDS011;64373;46.136;8.830;2023-06-22T01:20:38;5.10;;;3.50;;
75760;SDS011;64373;46.136;8.830;2023-06-22T01:23:48;4.60;;;3.75;;
75760;SDS011;64373;46.136;8.830;2023-06-22T01:26:13;4.13;;;3.72;;
75760;SDS011;64373;46.136;8.830;2023-06-22T01:28:43;4.25;;;3.42;;
75760;SDS011;64373;46.136;8.830;2023-06-22T01:31:12;3.92;;;3.22;;
75760;SDS011;64373;46.136;8.830;2023-06-22T01:33:41;4.18;;;3.28;;
75760;SDS011;64373;46.136;8.830;2023-06-22T01:36:07;4.05;;;3.20;;
75760;SDS011;64373;46.136;8.830;2023-06-22T01:38:33;4.97;;;3.72;;
75760;SDS011;64373;46.136;8.830;2023-06-22T01:41:00;4.53;;;3.55;;
75760;SDS011;64373;46.136;8.830;2023-06-22T01:43:26;6.50;;;3.85;;
75760;SDS011;64373;46.136;8.830;2023-06-22T01:45:56;3.95;;;3.53;;
75760;SDS011;64373;46.136;8.830;2023-06-22T01:48:23;5.40;;;3.70;;
75760;SDS011;64373;46.136;8.830;2023-06-22T01:50:51;4.03;;;3.63;;
75760;SDS011;64373;46.136;8.830;2023-06-22T01:53:17;4.45;;;3.60;;
75760;SDS011;64373;46.136;8.830;2023-06-22T01:55:43;4.85;;;3.50;;
75760;SDS011;64373;46.136;8.830;2023-06-22T01:58:08;5.93;;;3.22;;
75760;SDS011;64373;46.136;8.830;2023-06-22T02:00:36;4.10;;;3.33;;
75760;SDS011;64373;46.136;8.830;2023-06-22T02:03:05;3.78;;;3.22;;
75760;SDS011;64373;46.136;8.830;2023-06-22T02:05:47;4.38;;;3.45;;
75760;SDS011;64373;46.136;8.830;2023-06-22T02:08:17;5.03;;;4.10;;
75760;SDS011;64373;46.136;8.830;2023-06-22T02:10:46;5.97;;;4.82;;
75760;SDS011;64373;46.136;8.830;2023-06-22T02:13:12;9.13;;;5.55;;
75760;SDS011;64373;46.136;8.830;2023-06-22T02:15:38;6.30;;;4.28;;
75760;SDS011;64373;46.136;8.830;2023-06-22T02:18:04;6.38;;;4.90;;
75760;SDS011;64373;46.136;8.830;2023-06-22T02:20:30;5.45;;;4.60;;
75760;SDS011;64373;46.136;8.830;2023-06-22T02:22:55;5.00;;;4.00;;
75760;SDS011;64373;46.136;8.830;2023-06-22T02:25:21;4.72;;;3.83;;
75760;SDS011;64373;46.136;8.830;2023-06-22T02:27:47;6.03;;;4.15;;
75760;SDS011;64373;46.136;8.830;2023-06-22T02:30:12;6.97;;;4.45;;
75760;SDS011;64373;46.136;8.830;2023-06-22T02:32:40;7.28;;;4.25;;
75760;SDS011;64373;46.136;8.830;2023-06-22T02:35:06;10.65;;;6.22;;
75760;SDS011;64373;46.136;8.830;2023-06-22T02:37:33;9.05;;;5.57;;
75760;SDS011;64373;46.136;8.830;2023-06-22T02:40:00;9.23;;;5.90;;
75760;SDS011;64373;46.136;8.830;2023-06-22T02:42:27;7.82;;;5.40;;
75760;SDS011;64373;46.136;8.830;2023-06-22T02:44:52;5.35;;;4.70;;
75760;SDS011;64373;46.136;8.830;2023-06-22T02:47:18;8.18;;;5.95;;
75760;SDS011;64373;46.136;8.830;2023-06-22T02:49:43;9.32;;;6.45;;
75760;SDS011;64373;46.136;8.830;2023-06-22T02:52:10;11.20;;;6.38;;
75760;SDS011;64373;46.136;8.830;2023-06-22T02:54:36;8.77;;;5.80;;
75760;SDS011;64373;46.136;8.830;2023-06-22T02:57:02;5.85;;;5.00;;
75760;SDS011;64373;46.136;8.830;2023-06-22T02:59:28;5.57;;;4.45;;
75760;SDS011;64373;46.136;8.830;2023-06-22T03:01:53;5.65;;;4.07;;
75760;SDS011;64373;46.136;8.830;2023-06-22T03:04:19;4.68;;;3.70;;
75760;SDS011;64373;46.136;8.830;2023-06-22T03:06:44;4.65;;;4.10;;
75760;SDS011;64373;46.136;8.830;2023-06-22T03:09:16;5.53;;;3.92;;
75760;SDS011;64373;46.136;8.830;2023-06-22T03:11:42;4.28;;;3.83;;
75760;SDS011;64373;46.136;8.830;2023-06-22T03:14:08;4.22;;;3.83;;
75760;SDS011;64373;46.136;8.830;2023-06-22T03:16:33;6.80;;;4.22;;
75760;SDS011;64373;46.136;8.830;2023-06-22T03:18:59;8.25;;;4.80;;
75760;SDS011;64373;46.136;8.830;2023-06-22T03:21:26;5.03;;;4.38;;
75760;SDS011;64373;46.136;8.830;2023-06-22T03:23:53;5.35;;;4.18;;
75760;SDS011;64373;46.136;8.830;2023-06-22T03:26:19;5.70;;;4.40;;
75760;SDS011;64373;46.136;8.830;2023-06-22T03:28:45;6.63;;;4.20;;
75760;SDS011;64373;46.136;8.830;2023-06-22T03:31:11;4.93;;;4.40;;
75760;SDS011;64373;46.136;8.830;2023-06-22T03:33:36;6.53;;;5.03;;
75760;SDS011;64373;46.136;8.830;2023-06-22T03:36:02;9.70;;;5.60;;
75760;SDS011;64373;46.136;8.830;2023-06-22T03:38:27;7.03;;;4.93;;
75760;SDS011;64373;46.136;8.830;2023-06-22T03:40:53;5.93;;;4.68;;
75760;SDS011;64373;46.136;8.830;2023-06-22T03:43:18;5.43;;;4.40;;
75760;SDS011;64373;46.136;8.830;2023-06-22T03:45:44;5.00;;;4.22;;
75760;SDS011;64373;46.136;8.830;2023-06-22T03:48:12;6.55;;;4.50;;
75760;SDS011;64373;46.136;8.830;2023-06-22T03:50:38;4.97;;;4.28;;
75760;SDS011;64373;46.136;8.830;2023-06-22T03:53:03;4.40;;;3.70;;
75760;SDS011;64373;46.136;8.830;2023-06-22T03:55:29;5.38;;;4.22;;
75760;SDS011;64373;46.136;8.830;2023-06-22T03:57:55;5.53;;;4.13;;
75760;SDS011;64373;46.136;8.830;2023-06-22T04:00:22;4.60;;;3.65;;
75760;SDS011;64373;46.136;8.830;2023-06-22T04:02:48;4.85;;;4.20;;
75760;SDS011;64373;46.136;8.830;2023-06-22T04:05:14;6.25;;;4.28;;
75760;SDS011;64373;46.136;8.830;2023-06-22T04:07:42;6.18;;;4.72;;
75760;SDS011;64373;46.136;8.830;2023-06-22T04:10:08;6.90;;;4.82;;
75760;SDS011;64373;46.136;8.830;2023-06-22T04:12:34;5.72;;;4.90;;
75760;SDS011;64373;46.136;8.830;2023-06-22T04:14:59;6.93;;;4.57;;
75760;SDS011;64373;46.136;8.830;2023-06-22T04:17:25;6.20;;;4.53;;
75760;SDS011;64373;46.136;8.830;2023-06-22T04:19:50;6.43;;;4.63;;
75760;SDS011;64373;46.136;8.830;2023-06-22T04:22:16;7.72;;;4.22;;
75760;SDS011;64373;46.136;8.830;2023-06-22T04:24:42;5.15;;;3.97;;
75760;SDS011;64373;46.136;8.830;2023-06-22T04:27:09;5.13;;;3.92;;
75760;SDS011;64373;46.136;8.830;2023-06-22T04:29:34;6.30;;;4.45;;
75760;SDS011;64373;46.136;8.830;2023-06-22T04:32:00;7.68;;;5.32;;
75760;SDS011;64373;46.136;8.830;2023-06-22T04:34:31;6.55;;;4.57;;
75760;SDS011;64373;46.136;8.830;2023-06-22T04:36:57;4.60;;;3.83;;
75760;SDS011;64373;46.136;8.830;2023-06-22T04:39:23;5.82;;;4.38;;
75760;SDS011;64373;46.136;8.830;2023-06-22T04:41:49;5.72;;;4.10;;
75760;SDS011;64373;46.136;8.830;2023-06-22T04:44:16;5.15;;;3.78;;
75760;SDS011;64373;46.136;8.830;2023-06-22T04:46:52;5.90;;;3.78;;
75760;SDS011;64373;46.136;8.830;2023-06-22T04:49:20;4.40;;;3.72;;
75760;SDS011;64373;46.136;8.830;2023-06-22T04:51:46;4.20;;;3.13;;
75760;SDS011;64373;46.136;8.830;2023-06-22T04:54:11;4.90;;;3.13;;
75760;SDS011;64373;46.136;8.830;2023-06-22T04:56:37;4.85;;;3.33;;
75760;SDS011;64373;46.136;8.830;2023-06-22T04:59:03;4.10;;;3.40;;
75760;SDS011;64373;46.136;8.830;2023-06-22T05:01:29;3.33;;;3.03;;
75760;SDS011;64373;46.136;8.830;2023-06-22T05:03:57;3.38;;;3.03;;
75760;SDS011;64373;46.136;8.830;2023-06-22T05:06:26;4.03;;;3.17;;
75760;SDS011;64373;46.136;8.830;2023-06-22T05:08:53;3.88;;;3.13;;
75760;SDS011;64373;46.136;8.830;2023-06-22T05:11:26;4.43;;;3.88;;
75760;SDS011;64373;46.136;8.830;2023-06-22T05:13:52;9.00;;;5.03;;
75760;SDS011;64373;46.136;8.830;2023-06-22T05:16:18;9.68;;;5.60;;
75760;SDS011;64373;46.136;8.830;2023-06-22T05:18:49;11.55;;;5.97;;
75760;SDS011;64373;46.136;8.830;2023-06-22T05:21:16;9.23;;;5.85;;
75760;SDS011;64373;46.136;8.830;2023-06-22T05:23:42;9.75;;;5.57;;
75760;SDS011;64373;46.136;8.830;2023-06-22T05:26:07;7.05;;;4.55;;
75760;SDS011;64373;46.136;8.830;2023-06-22T05:28:35;5.28;;;4.18;;
75760;SDS011;64373;46.136;8.830;2023-06-22T05:31:00;7.68;;;5.32;;
75760;SDS011;64373;46.136;8.830;2023-06-22T05:33:26;9.23;;;5.60;;
75760;SDS011;64373;46.136;8.830;2023-06-22T05:35:51;7.05;;;4.97;;
75760;SDS011;64373;46.136;8.830;2023-06-22T05:38:17;5.35;;;4.63;;
75760;SDS011;64373;46.136;8.830;2023-06-22T05:40:42;4.93;;;3.72;;
75760;SDS011;64373;46.136;8.830;2023-06-22T05:43:08;5.85;;;4.10;;
75760;SDS011;64373;46.136;8.830;2023-06-22T05:45:34;5.88;;;4.38;;
75760;SDS011;64373;46.136;8.830;2023-06-22T05:47:59;6.18;;;4.35;;
75760;SDS011;64373;46.136;8.830;2023-06-22T05:50:25;5.85;;;4.38;;
75760;SDS011;64373;46.136;8.830;2023-06-22T05:52:50;9.95;;;5.55;;
75760;SDS011;64373;46.136;8.830;2023-06-22T05:55:16;12.73;;;7.57;;
75760;SDS011;64373;46.136;8.830;2023-06-22T05:57:43;8.55;;;6.25;;
75760;SDS011;64373;46.136;8.830;2023-06-22T06:00:09;7.72;;;5.78;;
75760;SDS011;64373;46.136;8.830;2023-06-22T06:02:36;9.88;;;6.55;;
75760;SDS011;64373;46.136;8.830;2023-06-22T06:05:02;7.70;;;5.78;;
75760;SDS011;64373;46.136;8.830;2023-06-22T06:07:28;10.98;;;7.30;;
75760;SDS011;64373;46.136;8.830;2023-06-22T06:09:55;12.25;;;7.68;;
75760;SDS011;64373;46.136;8.830;2023-06-22T06:12:20;7.88;;;5.60;;
75760;SDS011;64373;46.136;8.830;2023-06-22T06:14:46;9.55;;;6.75;;
75760;SDS011;64373;46.136;8.830;2023-06-22T06:17:12;7.45;;;5.88;;
75760;SDS011;64373;46.136;8.830;2023-06-22T06:19:38;11.60;;;7.50;;
75760;SDS011;64373;46.136;8.830;2023-06-22T06:22:03;10.63;;;7.18;;
75760;SDS011;64373;46.136;8.830;2023-06-22T06:24:29;8.07;;;6.05;;
75760;SDS011;64373;46.136;8.830;2023-06-22T06:26:54;10.65;;;6.80;;
75760;SDS011;64373;46.136;8.830;2023-06-22T06:29:20;8.23;;;5.65;;
75760;SDS011;64373;46.136;8.830;2023-06-22T06:31:45;6.03;;;5.15;;
75760;SDS011;64373;46.136;8.830;2023-06-22T06:34:11;8.48;;;5.47;;
75760;SDS011;64373;46.136;8.830;2023-06-22T06:36:37;12.23;;;7.13;;
75760;SDS011;64373;46.136;8.830;2023-06-22T06:39:02;7.78;;;5.88;;
75760;SDS011;64373;46.136;8.830;2023-06-22T06:41:29;7.03;;;5.15;;
75760;SDS011;64373;46.136;8.830;2023-06-22T06:43:54;8.55;;;6.03;;
75760;SDS011;64373;46.136;8.830;2023-06-22T06:46:20;8.50;;;5.60;;
75760;SDS011;64373;46.136;8.830;2023-06-22T06:48:45;9.75;;;6.45;;
75760;SDS011;64373;46.136;8.830;2023-06-22T06:51:11;11.52;;;7.43;;
75760;SDS011;64373;46.136;8.830;2023-06-22T06:53:37;9.75;;;7.07;;
75760;SDS011;64373;46.136;8.830;2023-06-22T06:56:03;10.45;;;6.70;;
75760;SDS011;64373;46.136;8.830;2023-06-22T06:58:30;9.88;;;6.82;;
75760;SDS011;64373;46.136;8.830;2023-06-22T07:00:56;8.30;;;5.80;;
75760;SDS011;64373;46.136;8.830;2023-06-22T07:03:22;10.13;;;6.20;;
75760;SDS011;64373;46.136;8.830;2023-06-22T07:05:47;13.57;;;6.72;;
75760;SDS011;64373;46.136;8.830;2023-06-22T07:08:13;12.73;;;7.35;;
75760;SDS011;64373;46.136;8.830;2023-06-22T07:10:39;12.05;;;7.03;;
75760;SDS011;64373;46.136;8.830;2023-06-22T07:13:04;12.00;;;7.05;;
75760;SDS011;64373;46.136;8.830;2023-06-22T07:15:30;9.60;;;6.68;;
75760;SDS011;64373;46.136;8.830;2023-06-22T07:17:55;8.75;;;6.63;;
75760;SDS011;64373;46.136;8.830;2023-06-22T07:20:21;8.93;;;6.20;;
75760;SDS011;64373;46.136;8.830;2023-06-22T07:22:46;10.40;;;5.65;;
75760;SDS011;64373;46.136;8.830;2023-06-22T07:25:12;9.43;;;6.30;;
75760;SDS011;64373;46.136;8.830;2023-06-22T07:27:39;8.45;;;5.88;;
75760;SDS011;64373;46.136;8.830;2023-06-22T07:30:09;8.90;;;5.57;;
75760;SDS011;64373;46.136;8.830;2023-06-22T07:32:35;7.20;;;5.43;;
75760;SDS011;64373;46.136;8.830;2023-06-22T07:35:01;9.63;;;6.63;;
75760;SDS011;64373;46.136;8.830;2023-06-22T07:37:27;7.97;;;5.38;;
75760;SDS011;64373;46.136;8.830;2023-06-22T07:39:54;8.43;;;5.88;;
75760;SDS011;64373;46.136;8.830;2023-06-22T07:42:26;9.45;;;6.20;;
75760;SDS011;64373;46.136;8.830;2023-06-22T07:44:52;12.82;;;7.20;;
75760;SDS011;64373;46.136;8.830;2023-06-22T07:47:18;10.70;;;6.32;;
75760;SDS011;64373;46.136;8.830;2023-06-22T07:49:44;11.13;;;6.55;;
75760;SDS011;64373;46.136;8.830;2023-06-22T07:52:11;13.38;;;7.10;;
75760;SDS011;64373;46.136;8.830;2023-06-22T07:54:37;10.27;;;6.10;;
75760;SDS011;64373;46.136;8.830;2023-06-22T07:57:03;9.02;;;5.82;;
75760;SDS011;64373;46.136;8.830;2023-06-22T07:59:29;9.35;;;5.22;;
75760;SDS011;64373;46.136;8.830;2023-06-22T08:01:55;12.77;;;6.22;;
75760;SDS011;64373;46.136;8.830;2023-06-22T08:04:20;10.20;;;5.78;;
75760;SDS011;64373;46.136;8.830;2023-06-22T08:06:46;7.10;;;5.32;;
75760;SDS011;64373;46.136;8.830;2023-06-22T08:09:11;9.85;;;5.72;;
75760;SDS011;64373;46.136;8.830;2023-06-22T08:11:37;10.23;;;6.38;;
75760;SDS011;64373;46.136;8.830;2023-06-22T08:14:02;12.45;;;7.35;;
75760;SDS011;64373;46.136;8.830;2023-06-22T08:16:28;10.55;;;6.95;;
75760;SDS011;64373;46.136;8.830;2023-06-22T08:18:54;10.13;;;6.50;;
75760;SDS011;64373;46.136;8.830;2023-06-22T08:21:20;10.50;;;6.13;;
75760;SDS011;64373;46.136;8.830;2023-06-22T08:23:45;8.98;;;6.32;;
75760;SDS011;64373;46.136;8.830;2023-06-22T08:26:11;10.20;;;6.13;;
75760;SDS011;64373;46.136;8.830;2023-06-22T08:28:36;11.27;;;7.10;;
75760;SDS011;64373;46.136;8.830;2023-06-22T08:31:02;11.80;;;6.30;;
75760;SDS011;64373;46.136;8.830;2023-06-22T08:33:29;12.70;;;6.82;;
75760;SDS011;64373;46.136;8.830;2023-06-22T08:35:55;11.45;;;6.70;;
75760;SDS011;64373;46.136;8.830;2023-06-22T08:38:21;11.75;;;6.80;;
75760;SDS011;64373;46.136;8.830;2023-06-22T08:40:47;13.55;;;6.82;;
75760;SDS011;64373;46.136;8.830;2023-06-22T08:43:12;9.70;;;6.63;;
75760;SDS011;64373;46.136;8.830;2023-06-22T08:45:38;12.82;;;6.38;;
75760;SDS011;64373;46.136;8.830;2023-06-22T08:48:03;8.50;;;5.78;;
75760;SDS011;64373;46.136;8.830;2023-06-22T08:50:29;12.02;;;6.57;;
75760;SDS011;64373;46.136;8.830;2023-06-22T08:52:55;11.30;;;6.68;;
75760;SDS011;64373;46.136;8.830;2023-06-22T08:55:20;7.55;;;5.97;;
75760;SDS011;64373;46.136;8.830;2023-06-22T08:57:46;9.35;;;6.35;;
75760;SDS011;64373;46.136;8.830;2023-06-22T09:00:11;8.55;;;6.43;;
75760;SDS011;64373;46.136;8.830;2023-06-22T09:02:41;10.30;;;7.35;;
75760;SDS011;64373;46.136;8.830;2023-06-22T09:05:07;10.25;;;6.88;;
75760;SDS011;64373;46.136;8.830;2023-06-22T09:07:33;9.80;;;6.88;;
75760;SDS011;64373;46.136;8.830;2023-06-22T09:09:59;8.60;;;6.40;;
75760;SDS011;64373;46.136;8.830;2023-06-22T09:12:25;11.50;;;6.75;;
75760;SDS011;64373;46.136;8.830;2023-06-22T09:14:52;10.02;;;6.57;;
75760;SDS011;64373;46.136;8.830;2023-06-22T09:17:18;12.05;;;7.13;;
75760;SDS011;64373;46.136;8.830;2023-06-22T09:19:44;10.30;;;6.35;;
75760;SDS011;64373;46.136;8.830;2023-06-22T09:22:10;15.35;;;7.22;;
75760;SDS011;64373;46.136;8.830;2023-06-22T09:24:35;11.95;;;6.93;;
75760;SDS011;64373;46.136;8.830;2023-06-22T09:27:01;13.35;;;6.53;;
75760;SDS011;64373;46.136;8.830;2023-06-22T09:29:26;11.07;;;7.07;;
75760;SDS011;64373;46.136;8.830;2023-06-22T09:31:52;10.88;;;6.70;;
75760;SDS011;64373;46.136;8.830;2023-06-22T09:34:20;11.88;;;6.40;;
75760;SDS011;64373;46.136;8.830;2023-06-22T09:36:46;11.90;;;7.32;;
75760;SDS011;64373;46.136;8.830;2023-06-22T09:39:12;10.00;;;6.18;;
75760;SDS011;64373;46.136;8.830;2023-06-22T09:41:37;9.05;;;6.40;;
75760;SDS011;64373;46.136;8.830;2023-06-22T09:44:03;11.15;;;6.38;;
75760;SDS011;64373;46.136;8.830;2023-06-22T09:46:29;10.93;;;6.60;;
75760;SDS011;64373;46.136;8.830;2023-06-22T09:48:54;9.70;;;6.65;;
75760;SDS011;64373;46.136;8.830;2023-06-22T09:51:20;11.20;;;7.10;;
75760;SDS011;64373;46.136;8.830;2023-06-22T09:53:47;10.90;;;7.00;;
75760;SDS011;64373;46.136;8.830;2023-06-22T09:56:13;9.15;;;6.80;;
75760;SDS011;64373;46.136;8.830;2023-06-22T09:58:43;11.60;;;6.95;;
75760;SDS011;64373;46.136;8.830;2023-06-22T10:01:09;11.60;;;7.10;;
75760;SDS011;64373;46.136;8.830;2023-06-22T10:03:41;10.23;;;6.40;;
75760;SDS011;64373;46.136;8.830;2023-06-22T10:06:06;9.98;;;7.13;;
75760;SDS011;64373;46.136;8.830;2023-06-22T10:08:33;9.77;;;6.53;;
75760;SDS011;64373;46.136;8.830;2023-06-22T10:10:58;10.50;;;6.75;;
75760;SDS011;64373;46.136;8.830;2023-06-22T10:13:24;8.60;;;5.75;;
75760;SDS011;64373;46.136;8.830;2023-06-22T10:15:49;9.60;;;6.18;;
75760;SDS011;64373;46.136;8.830;2023-06-22T10:18:17;9.40;;;5.60;;
75760;SDS011;64373;46.136;8.830;2023-06-22T10:20:43;11.50;;;6.15;;
75760;SDS011;64373;46.136;8.830;2023-06-22T10:23:09;12.73;;;7.00;;
75760;SDS011;64373;46.136;8.830;2023-06-22T10:25:34;11.45;;;6.88;;
75760;SDS011;64373;46.136;8.830;2023-06-22T10:28:00;9.45;;;6.68;;
75760;SDS011;64373;46.136;8.830;2023-06-22T10:30:25;12.10;;;6.15;;
75760;SDS011;64373;46.136;8.830;2023-06-22T10:32:51;8.02;;;5.97;;
75760;SDS011;64373;46.136;8.830;2023-06-22T10:35:16;10.20;;;6.68;;
75760;SDS011;64373;46.136;8.830;2023-06-22T10:37:43;9.55;;;6.68;;
75760;SDS011;64373;46.136;8.830;2023-06-22T10:40:09;8.15;;;5.97;;
75760;SDS011;64373;46.136;8.830;2023-06-22T10:42:36;10.60;;;6.22;;
75760;SDS011;64373;46.136;8.830;2023-06-22T10:45:02;8.40;;;6.18;;
75760;SDS011;64373;46.136;8.830;2023-06-22T10:47:28;9.15;;;6.25;;
75760;SDS011;64373;46.136;8.830;2023-06-22T10:49:53;8.70;;;6.22;;
75760;SDS011;64373;46.136;8.830;2023-06-22T10:52:19;8.18;;;5.70;;
75760;SDS011;64373;46.136;8.830;2023-06-22T10:54:44;10.18;;;6.47;;
75760;SDS011;64373;46.136;8.830;2023-06-22T10:57:10;10.88;;;6.50;;
75760;SDS011;64373;46.136;8.830;2023-06-22T10:59:35;11.75;;;7.13;;
75760;SDS011;64373;46.136;8.830;2023-06-22T11:02:01;8.98;;;6.93;;
75760;SDS011;64373;46.136;8.830;2023-06-22T11:04:27;10.50;;;6.40;;
75760;SDS011;64373;46.136;8.830;2023-06-22T11:06:52;8.48;;;6.22;;
75760;SDS011;64373;46.136;8.830;2023-06-22T11:09:18;10.48;;;6.68;;
75760;SDS011;64373;46.136;8.830;2023-06-22T11:11:49;8.60;;;5.70;;
75760;SDS011;64373;46.136;8.830;2023-06-22T11:14:16;9.18;;;6.50;;
75760;SDS011;64373;46.136;8.830;2023-06-22T11:16:41;11.50;;;6.70;;
75760;SDS011;64373;46.136;8.830;2023-06-22T11:19:07;14.57;;;7.22;;
75760;SDS011;64373;46.136;8.830;2023-06-22T11:21:33;9.30;;;6.28;;
75760;SDS011;64373;46.136;8.830;2023-06-22T11:23:58;14.45;;;6.97;;
75760;SDS011;64373;46.136;8.830;2023-06-22T11:26:25;7.55;;;6.18;;
75760;SDS011;64373;46.136;8.830;2023-06-22T11:28:55;8.85;;;5.80;;
75760;SDS011;64373;46.136;8.830;2023-06-22T11:31:21;10.98;;;6.57;;
75760;SDS011;64373;46.136;8.830;2023-06-22T11:33:46;9.00;;;6.05;;
75760;SDS011;64373;46.136;8.830;2023-06-22T11:36:13;11.85;;;6.15;;
75760;SDS011;64373;46.136;8.830;2023-06-22T11:38:39;13.10;;;6.88;;
75760;SDS011;64373;46.136;8.830;2023-06-22T11:41:05;10.88;;;6.90;;
75760;SDS011;64373;46.136;8.830;2023-06-22T11:43:32;10.55;;;6.70;;
75760;SDS011;64373;46.136;8.830;2023-06-22T11:45:57;11.90;;;6.63;;
75760;SDS011;64373;46.136;8.830;2023-06-22T11:48:25;8.43;;;6.72;;
75760;SDS011;64373;46.136;8.830;2023-06-22T11:50:51;9.45;;;6.30;;
75760;SDS011;64373;46.136;8.830;2023-06-22T11:53:16;9.43;;;7.28;;
75760;SDS011;64373;46.136;8.830;2023-06-22T11:55:43;8.90;;;6.35;;
75760;SDS011;64373;46.136;8.830;2023-06-22T11:58:09;10.35;;;6.43;;
75760;SDS011;64373;46.136;8.830;2023-06-22T12:00:34;11.00;;;6.00;;
75760;SDS011;64373;46.136;8.830;2023-06-22T12:03:00;9.63;;;6.35;;
75760;SDS011;64373;46.136;8.830;2023-06-22T12:05:25;11.93;;;6.90;;
75760;SDS011;64373;46.136;8.830;2023-06-22T12:07:54;8.27;;;5.60;;
75760;SDS011;64373;46.136;8.830;2023-06-22T12:10:22;7.90;;;5.68;;
75760;SDS011;64373;46.136;8.830;2023-06-22T12:12:48;11.38;;;6.43;;
75760;SDS011;64373;46.136;8.830;2023-06-22T12:15:13;11.10;;;5.82;;
75760;SDS011;64373;46.136;8.830;2023-06-22T12:17:39;8.60;;;6.22;;
75760;SDS011;64373;46.136;8.830;2023-06-22T12:20:07;9.73;;;6.20;;
75760;SDS011;64373;46.136;8.830;2023-06-22T12:22:34;10.02;;;5.90;;
75760;SDS011;64373;46.136;8.830;2023-06-22T12:25:00;7.82;;;5.78;;
75760;SDS011;64373;46.136;8.830;2023-06-22T12:27:26;14.10;;;6.88;;
75760;SDS011;64373;46.136;8.830;2023-06-22T12:29:52;8.57;;;5.65;;
75760;SDS011;64373;46.136;8.830;2023-06-22T12:32:17;12.30;;;7.13;;
75760;SDS011;64373;46.136;8.830;2023-06-22T12:34:43;10.65;;;6.57;;
75760;SDS011;64373;46.136;8.830;2023-06-22T12:37:09;9.32;;;6.25;;
75760;SDS011;64373;46.136;8.830;2023-06-22T12:39:35;11.13;;;6.03;;
75760;SDS011;64373;46.136;8.830;2023-06-22T12:42:01;10.00;;;6.60;;
75760;SDS011;64373;46.136;8.830;2023-06-22T12:44:26;9.65;;;6.20;;
75760;SDS011;64373;46.136;8.830;2023-06-22T12:46:52;7.35;;;5.47;;
75760;SDS011;64373;46.136;8.830;2023-06-22T12:49:18;8.70;;;5.93;;
75760;SDS011;64373;46.136;8.830;2023-06-22T12:51:43;10.18;;;6.07;;
75760;SDS011;64373;46.136;8.830;2023-06-22T12:54:10;7.80;;;6.05;;
75760;SDS011;64373;46.136;8.830;2023-06-22T12:56:36;9.43;;;6.00;;
75760;SDS011;64373;46.136;8.830;2023-06-22T12:59:03;8.40;;;6.25;;
75760;SDS011;64373;46.136;8.830;2023-06-22T13:01:30;10.45;;;6.80;;
75760;SDS011;64373;46.136;8.830;2023-06-22T13:03:57;8.45;;;6.65;;
75760;SDS011;64373;46.136;8.830;2023-06-22T13:06:23;10.48;;;7.82;;
75760;SDS011;64373;46.136;8.830;2023-06-22T13:08:49;10.95;;;6.40;;
75760;SDS011;64373;46.136;8.830;2023-06-22T13:11:14;8.27;;;5.45;;
75760;SDS011;64373;46.136;8.830;2023-06-22T13:13:40;6.30;;;5.40;;
75760;SDS011;64373;46.136;8.830;2023-06-22T13:16:06;8.23;;;6.20;;
75760;SDS011;64373;46.136;8.830;2023-06-22T13:18:33;6.13;;;5.32;;
75760;SDS011;64373;46.136;8.830;2023-06-22T13:21:01;5.95;;;5.05;;
75760;SDS011;64373;46.136;8.830;2023-06-22T13:23:30;6.63;;;5.20;;
75760;SDS011;64373;46.136;8.830;2023-06-22T13:25:55;7.45;;;5.05;;
75760;SDS011;64373;46.136;8.830;2023-06-22T13:28:21;7.53;;;5.43;;
75760;SDS011;64373;46.136;8.830;2023-06-22T13:30:47;11.73;;;6.25;;
75760;SDS011;64373;46.136;8.830;2023-06-22T13:33:13;7.55;;;5.65;;
75760;SDS011;64373;46.136;8.830;2023-06-22T13:35:39;6.50;;;5.20;;
75760;SDS011;64373;46.136;8.830;2023-06-22T13:38:08;7.00;;;5.18;;
75760;SDS011;64373;46.136;8.830;2023-06-22T13:40:34;5.57;;;4.82;;
75760;SDS011;64373;46.136;8.830;2023-06-22T13:43:00;9.05;;;5.60;;
75760;SDS011;64373;46.136;8.830;2023-06-22T13:45:26;7.88;;;5.63;;
75760;SDS011;64373;46.136;8.830;2023-06-22T13:47:52;6.65;;;4.85;;
75760;SDS011;64373;46.136;8.830;2023-06-22T13:50:17;7.88;;;5.25;;
75760;SDS011;64373;46.136;8.830;2023-06-22T13:52:43;7.30;;;4.88;;
75760;SDS011;64373;46.136;8.830;2023-06-22T13:55:08;10.93;;;5.63;;
75760;SDS011;64373;46.136;8.830;2023-06-22T13:57:34;6.90;;;5.47;;
75760;SDS011;64373;46.136;8.830;2023-06-22T14:00:00;12.82;;;5.90;;
75760;SDS011;64373;46.136;8.830;2023-06-22T14:02:26;7.80;;;5.40;;
75760;SDS011;64373;46.136;8.830;2023-06-22T14:04:53;8.38;;;5.50;;
75760;SDS011;64373;46.136;8.830;2023-06-22T14:07:18;6.28;;;4.90;;
75760;SDS011;64373;46.136;8.830;2023-06-22T14:09:46;5.75;;;4.28;;
75760;SDS011;64373;46.136;8.830;2023-06-22T14:12:12;5.93;;;4.88;;
75760;SDS011;64373;46.136;8.830;2023-06-22T14:14:37;4.95;;;4.13;;
75760;SDS011;64373;46.136;8.830;2023-06-22T14:17:03;5.63;;;5.00;;
75760;SDS011;64373;46.136;8.830;2023-06-22T14:19:30;8.88;;;6.70;;
75760;SDS011;64373;46.136;8.830;2023-06-22T14:21:55;11.88;;;6.25;;
75760;SDS011;64373;46.136;8.830;2023-06-22T14:24:22;8.55;;;6.03;;
75760;SDS011;64373;46.136;8.830;2023-06-22T14:26:48;8.70;;;5.65;;
75760;SDS011;64373;46.136;8.830;2023-06-22T14:29:13;6.55;;;4.93;;
75760;SDS011;64373;46.136;8.830;2023-06-22T14:31:39;6.07;;;5.43;;
75760;SDS011;64373;46.136;8.830;2023-06-22T14:34:05;6.05;;;5.20;;
75760;SDS011;64373;46.136;8.830;2023-06-22T14:36:31;6.43;;;4.88;;
75760;SDS011;64373;46.136;8.830;2023-06-22T14:38:56;7.40;;;5.22;;
75760;SDS011;64373;46.136;8.830;2023-06-22T14:41:22;6.75;;;5.03;;
75760;SDS011;64373;46.136;8.830;2023-06-22T14:43:49;5.70;;;4.55;;
75760;SDS011;64373;46.136;8.830;2023-06-22T14:46:15;5.70;;;4.38;;